Time;durP1;ratioP1;P1;durP2;ratioP2;P2;SDS_P1;SDS_P2;PMS_P1;PMS_P2;Temp;Humidity;BMP_temperature;BMP_pressure;BME280_temperature;BME280_humidity;BME280_pressure;Samples;Min_cycle;Max_cycle;Signal;HPM_P1;HPM_P2
2022/06/29 00:00:32;;;;;;;1.10;1.00;;;23.30;44.50;;;;;;4954633;23;20031;-61
2022/06/29 00:02:35;;;;;;;1.20;1.10;;;23.40;44.40;;;;;;4971493;23;20398;-65
2022/06/29 00:04:37;;;;;;;1.67;1.00;;;23.60;44.70;;;;;;4973352;23;20027;-66
2022/06/29 00:06:39;;;;;;;2.20;1.15;;;23.60;44.50;;;;;;4976732;23;20030;-64
2022/06/29 00:08:41;;;;;;;1.30;0.90;;;23.80;44.50;;;;;;4971345;23;20528;-63
2022/06/29 00:10:43;;;;;;;0.68;0.65;;;23.80;44.40;;;;;;4948890;23;20150;-65
2022/06/29 00:12:47;;;;;;;0.80;0.80;;;23.90;44.40;;;;;;4974760;23;20027;-69
2022/06/29 00:14:49;;;;;;;1.10;0.95;;;24.00;44.30;;;;;;4952052;23;20680;-68
2022/06/29 00:16:51;;;;;;;2.92;1.20;;;24.00;44.20;;;;;;4947174;23;20038;-58
2022/06/29 00:18:53;;;;;;;0.80;0.70;;;24.10;44.40;;;;;;4972526;23;20031;-65
2022/06/29 00:20:56;;;;;;;1.35;0.90;;;24.10;44.40;;;;;;4979708;23;20034;-70
2022/06/29 00:22:58;;;;;;;0.98;0.85;;;24.20;44.30;;;;;;4972729;23;20062;-67
2022/06/29 00:25:01;;;;;;;1.08;0.88;;;24.30;44.90;;;;;;4944947;23;20035;-67
2022/06/29 00:27:04;;;;;;;0.85;0.65;;;24.30;44.20;;;;;;4954975;23;20063;-62
2022/06/29 00:29:06;;;;;;;;;;;24.40;44.30;;;;;;4947672;23;20275;-63
2022/06/29 00:31:08;;;;;;;0.85;0.65;;;24.40;44.10;;;;;;4944630;23;19982;-69
2022/06/29 00:33:10;;;;;;;2.55;1.30;;;24.50;44.10;;;;;;4950281;23;20089;-62
2022/06/29 00:35:12;;;;;;;1.17;0.90;;;24.60;44.10;;;;;;4954732;23;20035;-67
2022/06/29 00:37:15;;;;;;;1.75;0.90;;;24.60;44.00;;;;;;4942476;23;20031;-66
2022/06/29 00:39:17;;;;;;;1.20;0.80;;;24.60;43.90;;;;;;4948827;23;20038;-68
2022/06/29 00:41:19;;;;;;;1.10;0.80;;;24.70;43.80;;;;;;4978299;23;20161;-66
2022/06/29 00:43:23;;;;;;;1.98;0.90;;;24.80;43.70;;;;;;4971298;23;20735;-70
2022/06/29 00:45:25;;;;;;;1.95;0.85;;;24.80;43.70;;;;;;4970752;23;20038;-69
2022/06/29 00:47:28;;;;;;;1.77;1.00;;;24.80;43.60;;;;;;4949721;23;20454;-70
2022/06/29 00:49:31;;;;;;;1.02;0.88;;;24.90;43.70;;;;;;4951143;23;20300;-66
2022/06/29 00:51:35;;;;;;;0.70;0.70;;;24.90;43.60;;;;;;4971741;23;20030;-65
2022/06/29 00:53:41;;;;;;;1.55;0.60;;;25.00;43.60;;;;;;4981583;23;20525;-67
2022/06/29 00:55:47;;;;;;;0.98;0.88;;;25.00;43.50;;;;;;4959025;23;20032;-65
2022/06/29 00:57:53;;;;;;;1.00;0.68;;;25.10;43.60;;;;;;4985853;23;20492;-64
2022/06/29 00:59:57;;;;;;;1.30;0.90;;;25.10;43.50;;;;;;4962140;23;20107;-64
2022/06/29 01:02:00;;;;;;;1.38;1.00;;;25.10;43.40;;;;;;4955846;23;20032;-65
2022/06/29 01:04:02;;;;;;;2.03;0.70;;;25.20;43.40;;;;;;4957344;23;20024;-62
2022/06/29 01:06:04;;;;;;;2.13;0.90;;;25.20;43.80;;;;;;4962730;23;20055;-60
2022/06/29 01:08:07;;;;;;;1.08;0.73;;;25.20;43.20;;;;;;4949371;23;20116;-64
2022/06/29 01:10:09;;;;;;;1.00;0.80;;;25.30;43.30;;;;;;4949384;23;20110;-70
2022/06/29 01:12:12;;;;;;;1.60;0.83;;;25.30;43.20;;;;;;4955400;23;20329;-66
2022/06/29 01:14:16;;;;;;;1.10;0.95;;;25.40;43.30;;;;;;4948249;23;20996;-66
2022/06/29 01:16:19;;;;;;;1.40;1.05;;;25.40;43.30;;;;;;4949513;23;20245;-66
2022/06/29 01:18:21;;;;;;;1.35;0.68;;;25.40;43.20;;;;;;4973834;23;20030;-64
2022/06/29 01:20:23;;;;;;;1.02;0.80;;;25.40;43.30;;;;;;4977525;23;20031;-67
2022/06/29 01:22:27;;;;;;;1.05;0.88;;;25.40;43.20;;;;;;4950729;23;20042;-70
2022/06/29 01:24:30;;;;;;;1.58;0.80;;;25.50;43.20;;;;;;4974849;23;20034;-72
2022/06/29 01:26:32;;;;;;;1.13;0.85;;;25.50;43.30;;;;;;4955574;23;20342;-65
2022/06/29 01:28:34;;;;;;;0.87;0.70;;;25.50;43.20;;;;;;4959229;23;20071;-66
2022/06/29 01:30:37;;;;;;;0.60;0.60;;;25.60;43.20;;;;;;4960555;23;20266;-72
2022/06/29 01:32:40;;;;;;;1.85;0.73;;;25.60;43.10;;;;;;4966766;23;20056;-69
2022/06/29 01:34:43;;;;;;;1.35;0.80;;;25.60;43.10;;;;;;4970302;23;20378;-63
2022/06/29 01:36:45;;;;;;;1.42;0.85;;;25.70;42.90;;;;;;4988109;23;20035;-62
2022/06/29 01:38:48;;;;;;;1.42;0.75;;;25.70;42.60;;;;;;4994600;23;20164;-68
2022/06/29 01:40:50;;;;;;;0.80;0.70;;;25.70;42.70;;;;;;4988778;23;20563;-63
2022/06/29 01:42:52;;;;;;;1.02;0.90;;;25.60;42.60;;;;;;4978979;23;20492;-64
2022/06/29 01:44:54;;;;;;;1.83;0.97;;;25.70;42.50;;;;;;4978262;23;20027;-62
2022/06/29 01:46:56;;;;;;;1.27;1.00;;;25.70;42.40;;;;;;4954235;23;20021;-61
2022/06/29 01:48:59;;;;;;;1.30;0.80;;;25.60;42.30;;;;;;4952917;23;20118;-64
2022/06/29 01:51:02;;;;;;;1.60;1.20;;;25.60;42.20;;;;;;4974287;23;20026;-63
2022/06/29 01:53:04;;;;;;;1.38;0.77;;;25.70;42.30;;;;;;4946579;23;20700;-63
2022/06/29 01:55:07;;;;;;;1.08;0.88;;;25.70;42.30;;;;;;4949187;23;20551;-65
2022/06/29 01:57:09;;;;;;;1.33;0.88;;;25.70;42.40;;;;;;4944470;23;20857;-65
2022/06/29 01:59:11;;;;;;;1.23;0.70;;;25.70;42.40;;;;;;4942288;23;20577;-66
2022/06/29 02:01:14;;;;;;;1.20;1.02;;;25.70;42.30;;;;;;4950802;23;20115;-63
2022/06/29 02:03:16;;;;;;;1.37;1.10;;;25.70;42.30;;;;;;4973991;23;20027;-64
2022/06/29 02:05:19;;;;;;;0.97;0.70;;;25.70;42.30;;;;;;4945200;23;20755;-68
2022/06/29 02:07:21;;;;;;;;;;;25.70;42.30;;;;;;4947467;23;20535;-64
2022/06/29 02:09:23;;;;;;;1.17;0.70;;;25.70;42.30;;;;;;4952141;23;19922;-67
2022/06/29 02:11:25;;;;;;;0.70;0.70;;;25.70;42.30;;;;;;4971224;23;20566;-70
2022/06/29 02:13:28;;;;;;;0.95;0.80;;;25.70;42.30;;;;;;4969957;23;20492;-67
2022/06/29 02:15:31;;;;;;;2.13;1.00;;;25.80;42.30;;;;;;4975741;23;20444;-69
2022/06/29 02:17:33;;;;;;;2.28;0.88;;;25.80;42.30;;;;;;4945857;23;20382;-65
2022/06/29 02:19:35;;;;;;;1.25;0.70;;;25.80;42.20;;;;;;4969985;23;20027;-65
2022/06/29 02:21:38;;;;;;;0.73;0.70;;;25.80;42.10;;;;;;4950441;23;20039;-65
2022/06/29 02:23:40;;;;;;;1.10;0.70;;;25.80;42.10;;;;;;4972629;23;20370;-75
2022/06/29 02:25:42;;;;;;;1.10;0.80;;;25.90;42.20;;;;;;4945281;23;20722;-63
2022/06/29 02:27:47;;;;;;;2.13;0.70;;;25.90;42.10;;;;;;4946421;23;20027;-70
2022/06/29 02:29:50;;;;;;;3.65;0.85;;;25.90;42.10;;;;;;4975768;23;20715;-67
2022/06/29 02:36:32;;;;;;;0.88;0.68;;;26.00;42.10;;;;;;4972532;23;20034;-65
2022/06/29 02:38:35;;;;;;;0.83;0.50;;;26.00;42.10;;;;;;4951665;23;20470;-65
2022/06/29 02:40:37;;;;;;;1.60;0.80;;;26.10;42.10;;;;;;4971166;23;20442;-64
2022/06/29 02:42:39;;;;;;;3.08;0.80;;;26.10;42.20;;;;;;4970677;23;20038;-67
2022/06/29 02:44:42;;;;;;;1.30;0.70;;;26.10;42.10;;;;;;4948632;23;20409;-65
2022/06/29 02:46:44;;;;;;;1.02;0.60;;;26.20;42.10;;;;;;4974367;23;20035;-63
2022/06/29 02:48:46;;;;;;;1.13;0.68;;;26.20;42.10;;;;;;4967815;23;20600;-63
2022/06/29 02:50:49;;;;;;;0.93;0.60;;;26.20;42.00;;;;;;4973863;23;20307;-65
2022/06/29 02:52:51;;;;;;;0.75;0.70;;;26.20;41.90;;;;;;4974728;23;20362;-65
2022/06/29 02:54:53;;;;;;;0.82;0.50;;;26.20;41.90;;;;;;4943226;23;20514;-64
2022/06/29 02:56:55;;;;;;;2.50;0.90;;;26.20;42.00;;;;;;4971297;23;20031;-68
2022/06/29 02:58:57;;;;;;;0.87;0.60;;;26.10;42.00;;;;;;4976773;23;20114;-64
2022/06/29 03:01:00;;;;;;;1.20;0.73;;;25.90;42.40;;;;;;4917446;23;20095;-65
2022/06/29 03:03:02;;;;;;;0.70;0.70;;;25.70;42.70;;;;;;4947990;23;20422;-68
2022/06/29 03:05:05;;;;;;;1.33;0.63;;;25.60;42.90;;;;;;4951055;23;20062;-68
2022/06/29 03:07:07;;;;;;;1.75;0.63;;;25.40;43.00;;;;;;4947199;23;20186;-68
2022/06/29 03:09:09;;;;;;;0.93;0.70;;;25.30;43.20;;;;;;4947260;23;20050;-60
2022/06/29 03:11:12;;;;;;;1.27;0.70;;;25.10;43.10;;;;;;4948947;23;20549;-65
2022/06/29 03:13:14;;;;;;;1.70;0.70;;;25.10;43.10;;;;;;4951229;23;20031;-66
2022/06/29 03:15:16;;;;;;;1.23;0.73;;;25.00;43.30;;;;;;4947600;23;20290;-64
2022/06/29 03:17:19;;;;;;;8.85;0.90;;;25.00;43.50;;;;;;4947837;23;20083;-67
2022/06/29 03:19:21;;;;;;;0.77;0.57;;;25.10;43.50;;;;;;4952375;23;20110;-65
2022/06/29 03:21:23;;;;;;;0.85;0.50;;;25.20;43.40;;;;;;4948151;23;20071;-72
2022/06/29 03:23:25;;;;;;;1.52;0.82;;;25.30;43.30;;;;;;4947430;23;21033;-67
2022/06/29 03:25:27;;;;;;;0.55;0.55;;;25.40;43.20;;;;;;4950003;23;20102;-68
2022/06/29 03:27:32;;;;;;;1.27;0.60;;;25.40;43.20;;;;;;4953405;23;20036;-69
2022/06/29 03:29:34;;;;;;;1.08;0.70;;;25.40;43.60;;;;;;4946781;23;20069;-67
2022/06/29 03:31:36;;;;;;;1.42;0.68;;;25.20;43.90;;;;;;4950430;23;20050;-66
2022/06/29 03:33:38;;;;;;;2.10;0.57;;;25.10;44.20;;;;;;4952737;23;20102;-67
2022/06/29 03:35:41;;;;;;;0.95;0.82;;;25.00;44.30;;;;;;4948659;23;20042;-67
2022/06/29 03:37:43;;;;;;;0.47;0.43;;;24.90;44.50;;;;;;4948060;23;20390;-68
2022/06/29 03:39:45;;;;;;;0.40;0.40;;;24.80;44.50;;;;;;4928675;23;20551;-63
2022/06/29 03:41:47;;;;;;;1.08;0.50;;;24.70;44.80;;;;;;4949476;23;20175;-72
2022/06/29 03:43:50;;;;;;;0.63;0.50;;;24.60;44.90;;;;;;4945025;23;20972;-63
2022/06/29 03:45:52;;;;;;;0.67;0.43;;;24.50;45.30;;;;;;4950242;23;20776;-67
2022/06/29 03:47:54;;;;;;;1.00;0.60;;;24.40;45.30;;;;;;4949237;23;20472;-66
2022/06/29 03:49:56;;;;;;;0.75;0.40;;;24.40;45.20;;;;;;4945621;23;20035;-67
2022/06/29 03:52:02;;;;;;;0.30;0.30;;;24.30;45.30;;;;;;4950582;23;20601;-69
2022/06/29 03:54:04;;;;;;;0.95;0.50;;;24.30;45.40;;;;;;4952663;23;20038;-70
2022/06/29 03:56:06;;;;;;;0.70;0.50;;;24.20;45.30;;;;;;4946713;23;20516;-74
2022/06/29 03:58:08;;;;;;;1.00;0.60;;;24.10;45.50;;;;;;4947200;23;20063;-69
2022/06/29 04:00:11;;;;;;;2.90;0.65;;;24.00;45.50;;;;;;4950244;23;20166;-68
2022/06/29 04:02:13;;;;;;;1.20;0.57;;;24.00;45.60;;;;;;4970386;23;20306;-66
2022/06/29 04:04:16;;;;;;;0.60;0.60;;;23.90;45.70;;;;;;4944647;23;20027;-72
2022/06/29 04:06:18;;;;;;;0.63;0.50;;;23.90;45.80;;;;;;4946026;23;20162;-69
2022/06/29 04:08:20;;;;;;;0.45;0.45;;;23.80;46.00;;;;;;4974868;23;20615;-65
2022/06/29 04:10:22;;;;;;;0.47;0.47;;;23.80;46.30;;;;;;4948009;23;20430;-64
2022/06/29 04:12:25;;;;;;;0.73;0.45;;;23.70;46.20;;;;;;4972755;23;20107;-64
2022/06/29 04:14:28;;;;;;;0.82;0.50;;;23.70;46.40;;;;;;4976348;23;20023;-67
2022/06/29 04:16:31;;;;;;;0.80;0.47;;;23.60;46.40;;;;;;4975204;23;20085;-73
2022/06/29 04:18:33;;;;;;;1.05;0.60;;;23.60;46.40;;;;;;4924964;23;20106;-65
2022/06/29 04:22:56;;;;;;;0.30;0.30;;;23.50;46.60;;;;;;4945001;23;20031;-66
2022/06/29 04:24:59;;;;;;;0.73;0.43;;;23.50;46.70;;;;;;4973282;23;20030;-65
2022/06/29 04:27:01;;;;;;;0.75;0.47;;;23.40;47.00;;;;;;4951173;23;20054;-65
2022/06/29 04:29:03;;;;;;;0.60;0.60;;;23.40;46.70;;;;;;4945632;23;20031;-73
2022/06/29 04:31:06;;;;;;;1.08;0.40;;;23.40;46.90;;;;;;4947911;23;20038;-69
2022/06/29 04:33:08;;;;;;;0.57;0.50;;;23.30;46.70;;;;;;4977240;23;20046;-65
2022/06/29 04:35:10;;;;;;;1.35;0.52;;;23.30;47.00;;;;;;4945266;23;20962;-66
2022/06/29 04:37:13;;;;;;;1.03;0.63;;;23.30;47.30;;;;;;4948048;23;20031;-62
2022/06/29 04:39:15;;;;;;;2.10;0.40;;;23.20;47.30;;;;;;4976062;23;20190;-64
2022/06/29 04:41:19;;;;;;;0.60;0.40;;;23.20;47.20;;;;;;4948013;23;20042;-64
2022/06/29 04:43:21;;;;;;;0.40;0.40;;;23.20;47.20;;;;;;4970779;23;20334;-65
2022/06/29 04:47:44;;;;;;;0.50;0.50;;;23.10;47.10;;;;;;4942742;23;20424;-64
2022/06/29 04:49:46;;;;;;;0.85;0.38;;;23.10;47.10;;;;;;4947477;23;20039;-64
2022/06/29 04:51:48;;;;;;;0.50;0.50;;;23.00;47.00;;;;;;4977390;23;20576;-65
2022/06/29 04:53:55;;;;;;;0.40;0.40;;;23.00;47.10;;;;;;4945667;23;20027;-65
2022/06/29 04:55:58;;;;;;;0.63;0.47;;;23.00;47.00;;;;;;4971637;23;20340;-64
2022/06/29 04:58:00;;;;;;;0.30;0.30;;;22.90;47.10;;;;;;4948529;23;20465;-66
2022/06/29 05:00:03;;;;;;;0.30;0.30;;;22.90;47.70;;;;;;4976696;23;20031;-64
2022/06/29 05:02:05;;;;;;;0.88;0.57;;;22.90;47.10;;;;;;4945308;23;20087;-65
2022/06/29 05:04:07;;;;;;;0.40;0.40;;;22.90;47.20;;;;;;4972425;23;20430;-65
2022/06/29 05:06:10;;;;;;;0.57;0.50;;;22.80;47.40;;;;;;4952881;23;20043;-70
2022/06/29 05:08:12;;;;;;;0.43;0.40;;;22.80;47.70;;;;;;4944033;23;20286;-65
2022/06/29 05:10:15;;;;;;;1.52;0.50;;;22.70;47.80;;;;;;4969613;23;20035;-64
2022/06/29 05:12:17;;;;;;;;;;;22.70;47.90;;;;;;4976400;23;20032;-69
2022/06/29 05:14:19;;;;;;;0.40;0.40;;;22.70;48.00;;;;;;4950095;23;19934;-68
2022/06/29 05:16:22;;;;;;;0.30;0.30;;;22.70;48.30;;;;;;4972511;23;20554;-61
2022/06/29 05:18:24;;;;;;;0.75;0.45;;;22.70;48.30;;;;;;4972255;23;20027;-63
2022/06/29 05:20:26;;;;;;;1.08;0.60;;;22.60;48.10;;;;;;4974290;23;20030;-67
2022/06/29 05:22:28;;;;;;;0.63;0.60;;;22.60;47.80;;;;;;4944306;23;20035;-67
2022/06/29 05:24:31;;;;;;;0.88;0.70;;;22.50;48.20;;;;;;4970429;23;20042;-71
2022/06/29 05:26:33;;;;;;;1.33;0.50;;;22.50;48.20;;;;;;4951863;23;20059;-74
2022/06/29 05:28:36;;;;;;;0.50;0.50;;;22.40;48.50;;;;;;4974265;23;20399;-74
2022/06/29 05:30:38;;;;;;;0.40;0.40;;;22.50;48.90;;;;;;4947011;23;20681;-67
2022/06/29 05:32:41;;;;;;;0.65;0.50;;;22.60;48.70;;;;;;4946879;23;20047;-72
2022/06/29 05:34:43;;;;;;;0.43;0.40;;;22.90;49.20;;;;;;4953436;23;20426;-76
2022/06/29 05:36:45;;;;;;;0.40;0.40;;;23.10;48.20;;;;;;4947685;23;20135;-71
2022/06/29 05:38:48;;;;;;;0.57;0.40;;;23.30;47.90;;;;;;4973896;23;20026;-69
2022/06/29 05:40:50;;;;;;;0.63;0.40;;;23.50;47.60;;;;;;4974639;23;20035;-67
2022/06/29 05:42:52;;;;;;;0.40;0.40;;;23.70;47.40;;;;;;4946432;23;20039;-69
2022/06/29 05:44:55;;;;;;;0.30;0.30;;;23.80;47.20;;;;;;4947034;23;20986;-66
2022/06/29 05:46:57;;;;;;;0.60;0.50;;;24.00;47.10;;;;;;4952497;23;20058;-72
2022/06/29 05:48:59;;;;;;;3.53;0.40;;;24.20;46.90;;;;;;4974506;23;20718;-67
2022/06/29 05:51:01;;;;;;;0.20;0.20;;;24.30;46.80;;;;;;4975105;23;20030;-75
2022/06/29 05:53:04;;;;;;;0.75;0.40;;;24.50;46.70;;;;;;4974890;23;20042;-71
2022/06/29 05:55:06;;;;;;;0.30;0.30;;;24.60;46.50;;;;;;4978135;23;20442;-72
2022/06/29 05:57:09;;;;;;;0.30;0.30;;;24.70;46.30;;;;;;4947210;23;20106;-70
2022/06/29 05:59:11;;;;;;;0.55;0.38;;;24.80;46.30;;;;;;4944865;23;20037;-72
2022/06/29 06:01:13;;;;;;;0.40;0.30;;;24.90;46.20;;;;;;4980383;23;20095;-76
2022/06/29 06:03:17;;;;;;;0.55;0.30;;;25.00;46.10;;;;;;4978246;23;20248;-76
2022/06/29 06:05:19;;;;;;;0.30;0.30;;;25.00;46.10;;;;;;4960117;23;20031;-71
2022/06/29 08:30:32;;;;;;;1.13;0.73;;;23.00;48.60;;;;;;5119903;23;20494;-62
2022/06/29 08:32:34;;;;;;;1.60;0.60;;;23.00;48.70;;;;;;5119590;23;20028;-67
2022/06/29 08:34:39;;;;;;;1.85;0.55;;;22.90;48.60;;;;;;5086860;23;20748;-64
2022/06/29 08:36:41;;;;;;;1.40;0.70;;;22.90;48.80;;;;;;5115860;23;20059;-61
2022/06/29 08:38:44;;;;;;;0.70;0.45;;;22.80;48.80;;;;;;5094360;23;20040;-63
2022/06/29 08:40:48;;;;;;;0.95;0.68;;;22.80;48.80;;;;;;5090080;23;20678;-63
2022/06/29 08:42:52;;;;;;;0.70;0.70;;;22.70;49.60;;;;;;5087193;23;20147;-64
2022/06/29 08:44:56;;;;;;;1.33;0.73;;;22.70;49.00;;;;;;5089495;23;20518;-68
2022/06/29 08:47:01;;;;;;;1.00;0.40;;;22.60;49.00;;;;;;5094331;23;20029;-66
2022/06/29 08:49:03;;;;;;;0.93;0.60;;;22.60;49.10;;;;;;5091057;23;20043;-69
2022/06/29 08:51:07;;;;;;;2.88;1.40;;;22.50;49.20;;;;;;5117996;23;20128;-68
2022/06/29 08:53:14;;;;;;;2.30;1.60;;;22.50;49.50;;;;;;5088773;23;20675;-67
2022/06/29 08:55:20;;;;;;;3.05;1.63;;;22.50;49.10;;;;;;5094526;23;20040;-68
2022/06/29 08:57:23;;;;;;;3.63;2.20;;;22.40;48.70;;;;;;5123275;23;20512;-68
2022/06/29 08:59:25;;;;;;;3.85;2.42;;;22.40;48.60;;;;;;5091030;23;20075;-73
2022/06/29 09:01:29;;;;;;;3.72;2.15;;;22.30;48.50;;;;;;5090529;23;20024;-71
2022/06/29 09:03:31;;;;;;;3.28;2.08;;;22.20;48.50;;;;;;5123198;23;20110;-66
2022/06/29 09:05:34;;;;;;;3.03;1.90;;;22.10;48.60;;;;;;5118357;23;20503;-65
2022/06/29 09:07:36;;;;;;;2.93;1.83;;;22.10;48.80;;;;;;5090708;23;20095;-63
2022/06/29 09:10:02;;;;;;;2.85;1.80;;;22.10;48.90;;;;;;5088636;23;20410;-64
2022/06/29 09:12:05;;;;;;;2.13;1.60;;;22.00;49.20;;;;;;5116292;23;20035;-62
2022/06/29 09:14:24;;;;;;;2.65;1.58;;;22.00;49.60;;;;;;5116328;23;20032;-64
2022/06/29 09:16:26;;;;;;;4.55;2.83;;;22.00;49.80;;;;;;5117304;23;20027;-65
2022/06/29 09:18:30;;;;;;;7.22;4.05;;;21.90;49.60;;;;;;5093779;23;20056;-65
2022/06/29 09:20:42;;;;;;;8.23;4.70;;;21.90;49.50;;;;;;5091747;23;20060;-66
2022/06/29 09:22:53;;;;;;;8.55;4.60;;;21.80;49.40;;;;;;5092759;23;20534;-65
2022/06/29 09:24:55;;;;;;;7.45;4.93;;;21.70;49.60;;;;;;5118212;23;20453;-66
2022/06/29 09:27:00;;;;;;;9.88;5.25;;;21.70;49.70;;;;;;5112639;23;20535;-65
2022/06/29 09:29:27;;;;;;;10.52;5.60;;;21.60;49.80;;;;;;5087503;23;20417;-66
2022/06/29 09:31:29;;;;;;;8.73;5.38;;;21.50;50.10;;;;;;5119592;23;20024;-66
2022/06/29 09:33:32;;;;;;;9.50;6.00;;;21.40;50.30;;;;;;5088398;23;20117;-65
2022/06/29 09:35:36;;;;;;;8.27;5.53;;;21.40;50.40;;;;;;5086312;23;20029;-65
2022/06/29 09:37:38;;;;;;;8.68;5.38;;;21.30;50.50;;;;;;5091102;23;20528;-66
2022/06/29 09:39:58;;;;;;;6.68;4.40;;;21.30;50.60;;;;;;5116362;23;20111;-66
2022/06/29 09:42:02;;;;;;;8.55;4.60;;;21.20;50.60;;;;;;5123733;23;20085;-68
2022/06/29 09:44:03;;;;;;;;;;;21.20;50.80;;;;;;5092807;23;20237;-66
2022/06/29 09:46:07;;;;;;;7.10;4.35;;;21.10;50.70;;;;;;5087898;23;19920;-65
2022/06/29 09:48:10;;;;;;;6.45;3.80;;;21.10;51.10;;;;;;5120900;23;20381;-66
2022/06/29 09:50:12;;;;;;;4.53;3.28;;;21.10;51.40;;;;;;5119574;23;20495;-67
2022/06/29 09:52:16;;;;;;;4.00;2.80;;;21.10;51.60;;;;;;5088757;23;20581;-66
2022/06/29 09:54:20;;;;;;;6.38;2.85;;;21.00;52.00;;;;;;5118760;23;20108;-72
2022/06/29 09:56:24;;;;;;;8.55;3.58;;;21.00;52.10;;;;;;5122696;23;20056;-67
2022/06/29 09:58:36;;;;;;;4.22;2.88;;;21.00;52.30;;;;;;5094860;23;20557;-69
2022/06/29 10:03:16;;;;;;;4.22;2.40;;;21.00;52.40;;;;;;4968857;23;20042;-72
2022/06/29 10:05:25;;;;;;;4.23;2.37;;;21.00;52.50;;;;;;5061321;23;20528;-65
2022/06/29 10:07:31;;;;;;;4.97;2.50;;;21.00;52.50;;;;;;5093661;23;20035;-71
2022/06/29 10:09:33;;;;;;;3.42;2.20;;;21.00;52.60;;;;;;5120844;23;20157;-68
2022/06/29 10:14:42;;;;;;;3.70;2.17;;;21.00;52.80;;;;;;5094397;23;20127;-67
2022/06/29 10:17:25;;;;;;;3.47;2.10;;;20.90;52.90;;;;;;5093902;23;20051;-67
2022/06/29 10:19:40;;;;;;;3.20;2.15;;;20.90;52.90;;;;;;5081302;23;20304;-64
2022/06/29 10:21:42;;;;;;;3.13;1.95;;;20.90;52.90;;;;;;5094780;23;21070;-67
2022/06/29 10:23:48;;;;;;;3.63;2.03;;;21.00;53.20;;;;;;5118571;23;20216;-72
2022/06/29 10:25:50;;;;;;;3.47;1.98;;;20.90;53.20;;;;;;5090452;23;20071;-67
2022/06/29 10:28:13;;;;;;;3.70;2.00;;;20.90;53.00;;;;;;5119349;23;20032;-71
2022/06/29 10:30:24;;;;;;;3.43;1.50;;;20.90;52.90;;;;;;5092397;23;20039;-68
2022/06/29 10:32:26;;;;;;;4.50;2.10;;;20.90;52.90;;;;;;5120383;23;20067;-69
2022/06/29 10:34:31;;;;;;;2.90;1.73;;;20.90;52.90;;;;;;5126092;23;20035;-69
2022/06/29 10:37:11;;;;;;;2.47;1.77;;;20.80;52.80;;;;;;5100308;23;20031;-69
2022/06/29 10:39:13;;;;;;;2.92;1.50;;;20.80;52.80;;;;;;5105912;23;20055;-70
2022/06/29 10:43:38;;;;;;;3.38;1.60;;;20.80;52.90;;;;;;5135743;23;20669;-70
2022/06/29 10:45:47;;;;;;;1.45;1.35;;;20.80;53.10;;;;;;5095655;23;20522;-68
2022/06/29 10:47:58;;;;;;;2.90;1.52;;;20.70;52.90;;;;;;5089593;23;20463;-67
2022/06/29 10:50:16;;;;;;;2.97;1.23;;;20.70;53.00;;;;;;5086832;23;20126;-68
2022/06/29 10:52:19;;;;;;;3.35;1.73;;;20.70;53.10;;;;;;5088950;23;20119;-71
2022/06/29 10:54:31;;;;;;;1.92;1.30;;;20.60;53.00;;;;;;5117096;23;20024;-74
2022/06/29 10:56:34;;;;;;;1.92;1.45;;;20.60;53.10;;;;;;5115684;23;20543;-71
2022/06/29 10:58:36;;;;;;;2.35;1.40;;;20.60;53.10;;;;;;5097356;23;20372;-68
2022/06/29 11:00:43;;;;;;;1.15;1.00;;;20.60;53.30;;;;;;5089523;23;20388;-73
2022/06/29 11:02:46;;;;;;;2.25;1.38;;;20.60;53.40;;;;;;5117213;23;20070;-66
2022/06/29 11:04:48;;;;;;;1.70;1.13;;;20.50;53.50;;;;;;5116792;23;20101;-72
2022/06/29 11:12:05;;;;;;;2.92;1.45;;;20.50;53.60;;;;;;5123872;23;20355;-65
2022/06/29 11:16:31;;;;;;;2.42;1.25;;;20.40;53.60;;;;;;5088246;23;20060;-68
2022/06/29 11:18:34;;;;;;;1.80;1.20;;;20.40;53.60;;;;;;5089785;23;20029;-70
2022/06/29 11:20:37;;;;;;;1.73;1.20;;;20.40;53.80;;;;;;5069545;23;20525;-65
2022/06/29 11:22:50;;;;;;;1.58;1.20;;;20.40;53.80;;;;;;5092929;23;20024;-75
2022/06/29 11:25:02;;;;;;;2.00;1.20;;;20.40;54.10;;;;;;5094030;23;20041;-70
2022/06/29 11:27:05;;;;;;;3.80;1.63;;;20.40;54.10;;;;;;5120866;23;20105;-70
2022/06/29 11:29:07;;;;;;;3.17;1.50;;;20.30;54.00;;;;;;5091081;23;20133;-67
2022/06/29 11:31:11;;;;;;;1.38;1.20;;;20.30;54.10;;;;;;5118976;23;21031;-68
2022/06/29 11:33:14;;;;;;;1.88;1.17;;;20.30;54.00;;;;;;5125365;23;20657;-71
2022/06/29 11:35:19;;;;;;;1.85;1.20;;;20.30;54.10;;;;;;5117325;23;20087;-65
2022/06/29 11:37:23;;;;;;;2.50;1.65;;;20.30;54.40;;;;;;5117406;23;20027;-66
2022/06/29 11:39:27;;;;;;;1.60;1.30;;;20.20;54.50;;;;;;5092957;23;20445;-66
2022/06/29 11:44:06;;;;;;;1.70;1.20;;;20.20;54.50;;;;;;5118546;23;20594;-67
2022/06/29 11:46:23;;;;;;;1.95;1.20;;;20.20;54.50;;;;;;5117121;23;20790;-66
2022/06/29 11:48:28;;;;;;;1.17;1.05;;;20.20;54.60;;;;;;5115849;23;20031;-63
2022/06/29 11:50:30;;;;;;;1.92;1.15;;;20.10;54.70;;;;;;5118120;23;20027;-69
2022/06/29 11:52:36;;;;;;;4.15;1.58;;;20.10;54.70;;;;;;5097580;23;20354;-77
2022/06/29 11:54:44;;;;;;;2.55;1.27;;;20.10;54.90;;;;;;5121128;23;20138;-72
2022/06/29 11:56:46;;;;;;;2.53;1.40;;;20.10;54.70;;;;;;5089634;23;20384;-63
2022/06/29 11:58:50;;;;;;;1.67;1.30;;;20.10;54.80;;;;;;5116816;23;20646;-65
2022/06/29 12:00:55;;;;;;;3.92;1.30;;;20.00;55.00;;;;;;5120538;23;20806;-66
2022/06/29 12:03:01;;;;;;;1.77;1.20;;;20.00;55.00;;;;;;5121585;23;20393;-65
2022/06/29 12:05:04;;;;;;;1.38;1.02;;;20.00;55.00;;;;;;5119421;23;20024;-62
2022/06/29 12:07:16;;;;;;;2.25;1.50;;;20.00;55.10;;;;;;5087375;23;20032;-64
2022/06/29 12:09:18;;;;;;;1.48;1.15;;;20.00;55.10;;;;;;5115559;23;20028;-69
2022/06/29 12:11:22;;;;;;;3.47;1.30;;;20.00;55.30;;;;;;5090702;23;20330;-70
2022/06/29 12:13:25;;;;;;;3.13;1.90;;;19.90;55.20;;;;;;5095300;23;20028;-70
2022/06/29 12:15:27;;;;;;;4.20;1.70;;;19.90;54.90;;;;;;5118143;23;20416;-73
2022/06/29 12:17:29;;;;;;;3.42;2.28;;;19.90;54.90;;;;;;5087511;23;20724;-73
2022/06/29 12:19:31;;;;;;;10.35;3.05;;;19.90;54.40;;;;;;5123410;23;20210;-70
2022/06/29 12:21:34;;;;;;;6.63;2.75;;;19.90;54.80;;;;;;5116079;23;20366;-67
2022/06/29 12:23:36;;;;;;;4.43;2.97;;;19.90;54.30;;;;;;5117380;23;20028;-69
2022/06/29 12:25:39;;;;;;;5.57;3.30;;;19.90;54.00;;;;;;5119083;23;20024;-73
2022/06/29 12:27:41;;;;;;;6.20;3.50;;;19.80;53.80;;;;;;5122706;23;20703;-69
2022/06/29 12:29:43;;;;;;;5.40;3.20;;;19.80;53.70;;;;;;5088292;23;20133;-68
2022/06/29 12:31:46;;;;;;;4.15;2.90;;;19.80;53.70;;;;;;5116056;23;20059;-70
2022/06/29 12:33:49;;;;;;;3.85;2.92;;;19.80;53.80;;;;;;5123691;23;20060;-69
2022/06/29 12:35:52;;;;;;;3.72;2.80;;;19.70;53.80;;;;;;5088037;23;20403;-74
2022/06/29 12:37:57;;;;;;;4.25;2.90;;;19.70;53.70;;;;;;5088721;23;20168;-65
2022/06/29 12:39:59;;;;;;;3.88;2.95;;;19.70;53.70;;;;;;5092959;23;20178;-73
2022/06/29 12:42:05;;;;;;;4.05;2.90;;;19.60;54.30;;;;;;5123560;23;20020;-72
2022/06/29 12:44:08;;;;;;;4.88;3.45;;;19.60;53.90;;;;;;5120311;23;20546;-81
2022/06/29 12:46:10;;;;;;;7.10;3.13;;;19.60;53.90;;;;;;5116319;23;20097;-82
2022/06/29 12:48:12;;;;;;;4.30;3.42;;;19.60;53.70;;;;;;5095419;23;20282;-75
2022/06/29 12:50:14;;;;;;;5.80;2.90;;;19.50;53.60;;;;;;5069457;23;20055;-73
2022/06/29 12:52:17;;;;;;;3.58;2.80;;;19.50;53.60;;;;;;5090214;23;20044;-68
2022/06/29 12:54:19;;;;;;;4.45;3.20;;;19.50;53.60;;;;;;5088744;23;20024;-72
2022/06/29 12:56:22;;;;;;;3.58;2.88;;;19.50;53.70;;;;;;5123080;23;20062;-75
2022/06/29 12:58:25;;;;;;;7.07;2.83;;;19.50;53.70;;;;;;5117461;23;20024;-74
2022/06/29 13:00:28;;;;;;;5.40;3.08;;;19.40;53.70;;;;;;5118334;23;20039;-76
2022/06/29 13:02:32;;;;;;;4.88;3.10;;;19.40;53.70;;;;;;5092966;23;20117;-66
2022/06/29 13:04:35;;;;;;;4.28;3.08;;;19.40;53.80;;;;;;5092698;23;20124;-67
2022/06/29 13:06:37;;;;;;;4.43;3.08;;;19.40;53.80;;;;;;5088874;23;20033;-68
2022/06/29 13:08:39;;;;;;;3.97;2.80;;;19.30;53.80;;;;;;5091143;23;20107;-66
2022/06/29 13:10:41;;;;;;;3.33;2.67;;;19.30;53.90;;;;;;5097801;23;20591;-74
2022/06/29 13:12:45;;;;;;;4.82;3.10;;;19.30;53.90;;;;;;5088808;23;20071;-73
2022/06/29 13:14:47;;;;;;;4.28;3.30;;;19.30;54.00;;;;;;5116357;23;20119;-74
2022/06/29 13:16:50;;;;;;;4.40;3.13;;;19.20;54.00;;;;;;5095915;23;20071;-67
2022/06/29 13:18:52;;;;;;;4.00;2.90;;;19.20;54.00;;;;;;5094072;23;20629;-68
2022/06/29 13:20:55;;;;;;;4.57;2.72;;;19.20;54.00;;;;;;5091784;23;20107;-68
2022/06/29 13:22:57;;;;;;;5.40;3.50;;;19.20;54.10;;;;;;5118347;23;20027;-76
2022/06/29 13:24:59;;;;;;;4.47;2.83;;;19.20;54.20;;;;;;5121674;23;20603;-78
2022/06/29 13:27:02;;;;;;;3.80;2.95;;;19.10;54.10;;;;;;5116701;23;20032;-78
2022/06/29 13:29:04;;;;;;;4.32;3.00;;;19.10;54.20;;;;;;5088612;23;20028;-67
2022/06/29 13:31:07;;;;;;;4.00;3.08;;;19.10;54.20;;;;;;5093857;23;20033;-63
2022/06/29 13:33:09;;;;;;;4.77;3.07;;;19.10;54.30;;;;;;5089906;23;20437;-69
2022/06/29 13:35:12;;;;;;;7.75;2.75;;;19.10;55.30;;;;;;5117369;23;20028;-69